Time;durP1;ratioP1;P1;durP2;ratioP2;P2;SDS_P1;SDS_P2;PMS_P1;PMS_P2;Temp;Humidity;BMP_temperature;BMP_pressure;BME280_temperature;BME280_humidity;BME280_pressure;Samples;Min_cycle;Max_cycle;Signal;HPM_P1;HPM_P2
2022/04/27 00:01:01;;;;;;;1.30;1.17;;;;;;;5.87;100.00;101560.66;5041426;28;20052;-78
2022/04/27 00:03:29;;;;;;;1.33;1.17;;;;;;;5.85;100.00;101565.47;5049798;28;20045;-78
2022/04/27 00:06:03;;;;;;;1.20;1.10;;;;;;;5.84;100.00;101561.13;5050881;28;20059;-79
2022/04/27 00:08:31;;;;;;;2.85;1.40;;;;;;;5.62;100.00;101557.00;5059069;28;20083;-79
2022/04/27 00:11:04;;;;;;;2.42;1.40;;;;;;;5.65;100.00;101568.41;5069883;28;20060;-78
2022/04/27 00:13:39;;;;;;;2.13;1.40;;;;;;;5.63;100.00;101560.53;5068029;28;20056;-79
2022/04/27 00:16:12;;;;;;;1.58;1.20;;;;;;;5.64;100.00;101566.78;5061414;28;20048;-78
2022/04/27 00:18:46;;;;;;;2.40;1.30;;;;;;;5.65;100.00;101563.84;5047844;28;20061;-79
2022/04/27 00:21:14;;;;;;;1.30;1.10;;;;;;;5.65;100.00;101560.28;5050143;28;20053;-78
2022/04/27 00:23:42;;;;;;;1.55;1.20;;;;;;;5.68;100.00;101567.97;5048183;28;20057;-78
2022/04/27 00:26:15;;;;;;;1.80;1.33;;;;;;;5.67;100.00;101571.72;5048778;28;20060;-78
2022/04/27 00:28:50;;;;;;;1.67;1.30;;;;;;;5.59;100.00;101570.97;5058780;28;20055;-78
2022/04/27 00:31:24;;;;;;;2.17;1.30;;;;;;;5.61;100.00;101570.75;5067756;28;20060;-78
2022/04/27 00:33:57;;;;;;;1.38;1.20;;;;;;;5.65;100.00;101577.34;5050128;28;20520;-78
2022/04/27 00:36:31;;;;;;;1.58;1.20;;;;;;;5.62;100.00;101577.78;5048046;28;20057;-78
2022/04/27 00:39:05;;;;;;;1.70;1.25;;;;;;;5.56;100.00;101566.00;5049082;28;20045;-78
2022/04/27 00:41:38;;;;;;;1.73;1.20;;;;;;;5.49;100.00;101573.34;5048869;28;20053;-78
2022/04/27 00:44:12;;;;;;;1.35;1.20;;;;;;;5.48;100.00;101574.38;5049728;28;20056;-80
2022/04/27 00:46:45;;;;;;;1.92;1.20;;;;;;;5.48;100.00;101574.38;5052080;28;20056;-79
2022/04/27 00:49:19;;;;;;;2.20;1.42;;;;;;;5.45;100.00;101570.28;5068303;28;20044;-81
2022/04/27 00:51:52;;;;;;;1.38;1.27;;;;;;;5.51;100.00;101573.97;5066425;28;20051;-78
2022/04/27 00:54:25;;;;;;;1.23;1.13;;;;;;;5.49;100.00;101577.94;5058288;28;20048;-80
2022/04/27 00:56:58;;;;;;;1.20;1.10;;;;;;;5.42;100.00;101573.41;5048060;28;20473;-80
2022/04/27 00:59:33;;;;;;;2.40;1.48;;;;;;;5.44;100.00;101575.88;5048820;28;20052;-80
2022/04/27 01:02:07;;;;;;;2.45;1.35;;;;;;;5.37;100.00;101580.53;5050409;28;20048;-79
2022/04/27 01:04:40;;;;;;;1.42;1.27;;;;;;;5.32;100.00;101588.47;5066846;28;20048;-79
2022/04/27 01:07:08;;;;;;;2.30;1.33;;;;;;;5.23;100.00;101583.38;5067128;28;20052;-80
2022/04/27 01:09:41;;;;;;;1.30;1.20;;;;;;;5.24;100.00;101584.19;5067858;28;20492;-79
2022/04/27 01:12:16;;;;;;;2.00;1.48;;;;;;;5.25;100.00;101592.06;5053299;28;20063;-79
2022/04/27 01:15:02;;;;;;;1.23;1.13;;;;;;;5.25;100.00;101589.34;5047737;28;20045;-79
2022/04/27 01:17:37;;;;;;;1.90;1.40;;;;;;;5.27;100.00;101589.13;5051727;28;20055;-79
2022/04/27 01:20:11;;;;;;;1.73;1.30;;;;;;;5.21;100.00;101590.84;5048327;28;20758;-79
2022/04/27 01:22:45;;;;;;;1.85;1.50;;;;;;;5.21;100.00;101598.13;5047593;28;20049;-78
2022/04/27 01:25:14;;;;;;;2.10;1.55;;;;;;;5.22;100.00;101599.75;5047807;28;20409;-80
2022/04/27 01:27:47;;;;;;;2.03;1.60;;;;;;;5.21;100.00;101592.72;5062717;28;20048;-78
2022/04/27 01:30:21;;;;;;;2.05;1.45;;;;;;;5.21;100.00;101592.72;5051471;28;20057;-80
2022/04/27 01:32:54;;;;;;;3.22;1.48;;;;;;;5.17;100.00;101589.63;5053219;28;20053;-79
2022/04/27 01:35:27;;;;;;;2.50;1.52;;;;;;;5.25;100.00;101604.75;5048942;28;20049;-80
2022/04/27 01:38:03;;;;;;;1.73;1.50;;;;;;;5.14;100.00;101600.03;5062679;28;20511;-80
2022/04/27 01:40:36;;;;;;;1.85;1.45;;;;;;;5.13;100.00;101598.41;5062190;28;20061;-79
2022/04/27 01:43:10;;;;;;;1.77;1.52;;;;;;;5.09;100.00;101606.91;5047549;28;20049;-79
2022/04/27 01:45:44;;;;;;;1.60;1.50;;;;;;;5.05;100.00;101607.59;5047328;28;20060;-79
2022/04/27 01:48:13;;;;;;;1.90;1.70;;;;;;;5.03;100.00;101612.41;5047913;28;20513;-79
2022/04/27 01:50:46;;;;;;;1.85;1.58;;;;;;;5.04;100.00;101616.72;5048671;28;20068;-79
2022/04/27 01:56:14;;;;;;;1.70;1.60;;;;;;;4.93;100.00;101619.09;5050888;28;20060;-79
2022/04/27 01:58:47;;;;;;;1.85;1.70;;;;;;;4.88;100.00;101616.22;5061456;28;20052;-79
2022/04/27 02:01:21;;;;;;;2.50;2.10;;;;;;;4.88;100.00;101620.81;5070183;28;20672;-79
2022/04/27 02:03:58;;;;;;;2.17;1.98;;;;;;;4.89;100.00;101623.28;5060131;28;20053;-79
2022/04/27 02:06:28;;;;;;;3.10;1.88;;;;;;;4.83;100.00;101626.84;5064450;28;20049;-78
2022/04/27 02:08:58;;;;;;;2.25;1.98;;;;;;;4.88;100.00;101626.19;5070879;28;20052;-78
2022/04/27 02:11:35;;;;;;;1.95;1.85;;;;;;;4.85;100.00;101622.06;5071402;28;20440;-79
2022/04/27 02:14:10;;;;;;;2.50;2.20;;;;;;;4.87;100.00;101619.13;5070561;28;20516;-78
2022/04/27 02:16:43;;;;;;;2.35;2.00;;;;;;;4.86;100.00;101625.56;5051036;28;20057;-78
2022/04/27 02:19:18;;;;;;;6.38;2.40;;;;;;;4.88;100.00;101626.19;5051904;28;20057;-79
2022/04/27 02:21:48;;;;;;;2.28;2.08;;;;;;;4.84;100.00;101631.19;5039423;28;20409;-79
2022/04/27 02:24:24;;;;;;;2.55;2.30;;;;;;;4.84;100.00;101633.88;5031138;28;20065;-80
2022/04/27 02:26:57;;;;;;;3.10;2.60;;;;;;;4.83;100.00;101621.44;5030989;28;20053;-78
2022/04/27 02:29:31;;;;;;;2.40;2.20;;;;;;;4.88;100.00;101631.59;5032178;28;20504;-78
2022/04/27 02:32:16;;;;;;;2.78;2.45;;;;;;;4.88;100.00;101634.28;5051824;28;20074;-79
2022/04/27 02:34:51;;;;;;;3.08;2.50;;;;;;;4.80;100.00;101629.97;5043188;28;20061;-78
2022/04/27 02:37:24;;;;;;;3.47;2.40;;;;;;;4.78;100.00;101640.16;5030288;28;20050;-78
2022/04/27 02:40:00;;;;;;;2.75;2.55;;;;;;;4.80;100.00;101637.25;5032411;28;20056;-79
2022/04/27 02:42:34;;;;;;;2.70;2.50;;;;;;;4.86;100.00;101645.31;5032453;28;20060;-79
2022/04/27 02:45:09;;;;;;;3.85;2.60;;;;;;;4.79;100.00;101644.50;5038042;28;20038;-78
2022/04/27 02:47:42;;;;;;;3.50;2.78;;;;;;;4.74;100.00;101655.94;5045550;28;20059;-79
2022/04/27 02:53:02;;;;;;;2.50;2.30;;;;;;;4.61;100.00;101658.69;5043658;28;20486;-79
2022/04/27 02:55:37;;;;;;;2.78;2.58;;;;;;;4.56;100.00;101659.38;5049752;28;20041;-79
2022/04/27 02:58:08;;;;;;;3.03;2.72;;;;;;;4.60;100.00;101654.38;5039850;28;20053;-79
2022/04/27 03:00:37;;;;;;;2.90;2.70;;;;;;;4.56;100.00;101662.06;5048823;28;20397;-79
2022/04/27 03:03:10;;;;;;;3.03;2.83;;;;;;;4.52;100.00;101649.25;5042096;28;20056;-79
2022/04/27 03:05:40;;;;;;;3.00;2.80;;;;;;;4.46;100.00;101658.16;5043656;28;20045;-78
2022/04/27 03:08:14;;;;;;;3.55;3.30;;;;;;;4.34;100.00;101652.63;5051172;28;20056;-78
2022/04/27 03:10:53;;;;;;;3.90;3.60;;;;;;;4.25;100.00;101650.19;5042360;28;20401;-79
2022/04/27 03:13:39;;;;;;;4.07;3.78;;;;;;;4.28;100.00;101648.94;5052848;28;20049;-79
2022/04/27 03:16:15;;;;;;;4.15;3.75;;;;;;;4.29;100.00;101644.38;5048524;28;20061;-78
2022/04/27 03:18:48;;;;;;;4.70;4.32;;;;;;;4.28;100.00;101643.53;5041527;28;20045;-78
2022/04/27 03:21:21;;;;;;;5.32;4.82;;;;;;;4.32;100.00;101652.00;5037238;28;20416;-79
2022/04/27 03:23:55;;;;;;;4.80;4.40;;;;;;;4.37;100.00;101653.03;5043910;28;20049;-78
2022/04/27 03:26:31;;;;;;;4.68;4.28;;;;;;;4.28;100.00;101659.72;5044850;28;20524;-79
2022/04/27 03:29:00;;;;;;;5.00;4.60;;;;;;;4.26;100.00;101651.00;5040080;28;20457;-79
2022/04/27 03:31:34;;;;;;;5.90;5.40;;;;;;;4.29;100.00;101655.97;5046165;28;20382;-79
2022/04/27 03:34:08;;;;;;;6.10;5.60;;;;;;;4.24;100.00;101667.38;5041969;28;20040;-79
2022/04/27 03:36:41;;;;;;;6.25;5.75;;;;;;;4.16;100.00;101670.31;5042455;28;20045;-79
2022/04/27 03:39:11;;;;;;;6.35;5.85;;;;;;;4.15;100.00;101667.84;5044430;28;20064;-79
2022/04/27 03:41:46;;;;;;;7.93;7.32;;;;;;;4.12;100.00;101676.34;5051511;28;20398;-79
2022/04/27 03:44:19;;;;;;;7.38;6.78;;;;;;;4.15;100.00;101668.66;5042570;28;20065;-79
2022/04/27 03:46:52;;;;;;;7.65;7.05;;;;;;;4.11;100.00;101674.69;5044753;28;20051;-78
2022/04/27 03:49:28;;;;;;;8.63;8.02;;;;;;;4.13;100.00;101677.97;5042750;28;20049;-79
2022/04/27 03:52:02;;;;;;;8.40;7.80;;;;;;;4.11;100.00;101696.25;5036381;28;20124;-80
2022/04/27 03:54:31;;;;;;;7.90;7.30;;;;;;;4.08;100.00;101692.09;5052135;28;20759;-79
2022/04/27 03:57:06;;;;;;;9.38;8.68;;;;;;;4.20;100.00;101681.50;5047502;28;20044;-79
2022/04/27 03:59:39;;;;;;;9.80;9.10;;;;;;;4.22;100.00;101693.69;5041286;28;20501;-79
2022/04/27 04:02:14;;;;;;;9.15;8.45;;;;;;;4.28;100.00;101685.81;5036451;28;20060;-80
2022/04/27 04:04:43;;;;;;;9.35;8.65;;;;;;;4.20;100.00;101697.69;5041250;28;20041;-79
2022/04/27 04:07:18;;;;;;;9.30;8.65;;;;;;;4.28;100.00;101697.44;5036111;28;20760;-79
2022/04/27 04:09:55;;;;;;;9.60;8.90;;;;;;;4.25;100.00;101698.69;5035069;28;20052;-79
2022/04/27 04:12:26;;;;;;;9.65;8.95;;;;;;;4.14;100.00;101695.81;5045017;28;20062;-79
2022/04/27 04:15:20;;;;;;;10.25;9.55;;;;;;;4.21;100.00;101710.94;5048486;28;20057;-80
2022/04/27 04:18:16;;;;;;;11.38;10.50;;;;;;;4.20;100.00;101705.75;5030844;28;20057;-79
2022/04/27 04:21:13;;;;;;;;;;;;;;;4.20;100.00;101721.94;5046871;28;20060;-79
2022/04/27 04:23:58;;;;;;;10.00;9.30;;;;;;;4.23;100.00;101725.00;5037666;28;19928;-77
2022/04/27 04:29:25;;;;;;;13.85;12.85;;;;;;;4.26;100.00;101724.56;5039462;28;20049;-78
2022/04/27 04:31:58;;;;;;;15.13;14.13;;;;;;;4.34;100.00;101733.50;5047863;28;20195;-78
2022/04/27 04:34:58;;;;;;;16.85;15.77;;;;;;;4.36;100.00;101739.47;5042715;28;20061;-79
2022/04/27 04:37:32;;;;;;;16.83;15.73;;;;;;;4.43;100.00;101740.28;5056249;28;20753;-79
2022/04/27 04:40:07;;;;;;;17.35;16.27;;;;;;;4.42;100.00;101760.22;5037077;28;20056;-78
2022/04/27 04:42:41;;;;;;;16.75;15.75;;;;;;;4.48;100.00;101759.34;5032613;28;20053;-79
2022/04/27 04:45:16;;;;;;;17.20;16.13;;;;;;;4.50;100.00;101761.81;5046346;28;20072;-78
2022/04/27 04:48:09;;;;;;;15.48;14.48;;;;;;;4.51;100.00;101750.81;5039924;28;20057;-81
2022/04/27 04:50:59;;;;;;;16.95;15.95;;;;;;;4.57;100.00;101751.84;5038338;28;20049;-79
2022/04/27 04:53:51;;;;;;;15.75;14.75;;;;;;;4.71;100.00;101756.16;5043807;28;20049;-79
2022/04/27 04:56:29;;;;;;;17.08;15.98;;;;;;;4.67;100.00;101763.00;5047086;28;20067;-79
2022/04/27 04:59:02;;;;;;;16.48;15.48;;;;;;;4.84;100.00;101768.75;5050187;28;20053;-79
2022/04/27 05:01:56;;;;;;;18.10;17.00;;;;;;;4.93;100.00;101764.75;5040574;28;20057;-79
2022/04/27 05:04:30;;;;;;;18.42;17.27;;;;;;;5.15;100.00;101767.16;5056160;28;20072;-79
2022/04/27 05:07:27;;;;;;;18.50;17.33;;;;;;;6.83;100.00;101771.03;5046848;28;20061;-79
2022/04/27 05:10:14;;;;;;;13.93;13.02;;;;;;;8.06;100.00;101767.91;5046669;28;20052;-78
2022/04/27 05:13:11;;;;;;;;;;;;;;;8.21;100.00;101768.25;5041345;28;20060;-79
2022/04/27 05:16:07;;;;;;;5.22;4.72;;;;;;;8.26;100.00;101771.09;5034851;28;19925;-79
2022/04/27 05:18:59;;;;;;;3.55;3.25;;;;;;;8.69;100.00;101766.31;5045766;28;20052;-78
2022/04/27 05:21:51;;;;;;;2.13;1.98;;;;;;;9.32;100.00;101769.97;5047770;28;20060;-80
2022/04/27 05:24:39;;;;;;;2.55;1.90;;;;;;;8.58;100.00;101768.00;5045490;28;20056;-80
2022/04/27 05:27:31;;;;;;;3.05;1.92;;;;;;;7.99;100.00;101774.25;5042993;28;20060;-80
2022/04/27 05:33:23;;;;;;;1.73;1.45;;;;;;;7.15;100.00;101782.44;5045007;28;20061;-79
2022/04/27 05:36:33;;;;;;;4.38;1.90;;;;;;;6.79;100.00;101790.44;5038574;28;20048;-80
2022/04/27 05:39:39;;;;;;;1.52;1.42;;;;;;;6.79;100.00;101770.66;5044735;28;20743;-79
2022/04/27 05:42:22;;;;;;;2.60;1.65;;;;;;;6.97;100.00;101792.28;5044432;28;20057;-79
2022/04/27 05:45:04;;;;;;;2.22;1.88;;;;;;;6.76;100.00;101787.34;5041277;28;20482;-79
2022/04/27 05:47:55;;;;;;;2.58;2.00;;;;;;;7.02;100.00;101790.78;5038423;28;20044;-80
2022/04/27 05:50:42;;;;;;;3.13;2.22;;;;;;;7.34;100.00;101796.78;5039042;28;20060;-80
2022/04/27 05:53:29;;;;;;;2.47;1.83;;;;;;;7.36;100.00;101791.97;5036029;28;20046;-80
2022/04/27 05:56:20;;;;;;;2.28;2.08;;;;;;;7.21;100.00;101794.25;5041139;28;20053;-77
2022/04/27 05:58:51;;;;;;;4.45;2.20;;;;;;;6.99;100.00;101802.88;5049749;28;20060;-79
2022/04/27 06:01:41;;;;;;;2.92;2.20;;;;;;;7.31;100.00;101800.75;5041789;28;20064;-78
2022/04/27 06:04:15;;;;;;;2.75;2.47;;;;;;;7.06;100.00;101800.09;5044947;28;20501;-78
2022/04/27 06:06:45;;;;;;;3.13;2.50;;;;;;;6.98;100.00;101803.94;5045514;28;20059;-78
2022/04/27 06:09:22;;;;;;;2.55;2.35;;;;;;;7.11;100.00;101805.63;5038480;28;20065;-80
2022/04/27 06:12:00;;;;;;;2.38;2.17;;;;;;;7.24;100.00;101807.34;5040723;28;20151;-79
2022/04/27 06:14:43;;;;;;;2.58;2.38;;;;;;;7.02;100.00;101813.25;5039445;28;20057;-80
2022/04/27 06:17:18;;;;;;;2.92;2.72;;;;;;;7.31;100.00;101811.59;5040436;28;20050;-79
2022/04/27 06:19:51;;;;;;;3.17;2.88;;;;;;;7.06;100.00;101811.72;5047241;28;20060;-79
2022/04/27 06:22:20;;;;;;;3.13;2.83;;;;;;;7.08;100.00;101815.03;5048901;28;20061;-77
2022/04/27 06:24:55;;;;;;;3.00;2.80;;;;;;;7.15;100.00;101832.03;5035764;28;20486;-78
2022/04/27 06:27:41;;;;;;;3.33;3.03;;;;;;;7.41;100.00;101837.31;5034771;28;20049;-80
2022/04/27 06:30:14;;;;;;;4.32;3.92;;;;;;;7.60;100.00;101844.31;5042271;28;20060;-79
2022/04/27 06:32:49;;;;;;;4.78;4.38;;;;;;;7.73;100.00;101843.28;5035998;28;20052;-77
2022/04/27 06:35:18;;;;;;;4.78;4.38;;;;;;;7.46;100.00;101848.28;5045448;28;20052;-79
2022/04/27 06:37:55;;;;;;;4.00;3.65;;;;;;;7.81;100.00;101847.53;5040874;28;20095;-80
2022/04/27 06:40:29;;;;;;;4.10;3.70;;;;;;;8.18;100.00;101858.22;5046495;28;20049;-80
2022/04/27 06:43:03;;;;;;;4.20;3.85;;;;;;;8.40;100.00;101853.03;5042805;28;20060;-78
2022/04/27 06:45:45;;;;;;;3.30;3.05;;;;;;;7.94;100.00;101852.75;5045371;28;20079;-78
2022/04/27 06:48:37;;;;;;;2.85;2.65;;;;;;;8.18;100.00;101848.19;5043883;28;20056;-80
2022/04/27 06:51:29;;;;;;;3.00;2.70;;;;;;;7.94;100.00;101841.91;5043836;28;20068;-79
2022/04/27 06:54:31;;;;;;;3.13;2.78;;;;;;;8.53;100.00;101834.88;5044455;28;20056;-79
2022/04/27 06:57:24;;;;;;;3.90;2.95;;;;;;;8.54;100.00;101845.50;5045011;28;20059;-80
2022/04/27 07:00:05;;;;;;;2.67;2.47;;;;;;;8.50;100.00;101841.59;5052920;28;20045;-79
2022/04/27 07:02:38;;;;;;;2.88;2.67;;;;;;;8.70;100.00;101851.25;5042790;28;20045;-82
2022/04/27 07:05:09;;;;;;;2.75;2.55;;;;;;;9.07;100.00;101848.22;5038580;28;20045;-79
2022/04/27 07:07:43;;;;;;;2.60;2.40;;;;;;;9.30;100.00;101852.75;5041122;28;20048;-80
2022/04/27 07:10:19;;;;;;;3.03;2.70;;;;;;;9.48;100.00;101852.56;5038609;28;20057;-80
2022/04/27 07:12:54;;;;;;;3.10;2.45;;;;;;;9.51;100.00;101843.94;5054407;28;20044;-80
2022/04/27 07:15:27;;;;;;;2.30;2.10;;;;;;;9.17;100.00;101848.44;5041329;28;21546;-80
2022/04/27 07:18:00;;;;;;;2.60;1.90;;;;;;;9.21;100.00;101852.34;5046190;28;20049;-79
2022/04/27 07:20:28;;;;;;;3.35;1.92;;;;;;;9.42;100.00;101852.69;5049934;28;20052;-80
2022/04/27 07:23:02;;;;;;;2.35;1.63;;;;;;;9.17;100.00;101864.75;5046567;28;20052;-79
2022/04/27 07:25:35;;;;;;;2.15;1.83;;;;;;;9.24;100.00;101876.28;5036427;28;20057;-79
2022/04/27 07:28:09;;;;;;;2.13;1.75;;;;;;;9.29;100.00;101867.41;5038759;28;20040;-79
2022/04/27 07:30:44;;;;;;;1.67;1.52;;;;;;;9.48;100.00;101866.13;5029700;28;20053;-80
2022/04/27 07:33:12;;;;;;;3.25;1.83;;;;;;;9.43;100.00;101870.66;5033518;28;20064;-80
2022/04/27 07:35:40;;;;;;;1.80;1.70;;;;;;;9.59;100.00;101874.50;5027179;28;20044;-80
2022/04/27 07:38:14;;;;;;;2.13;1.77;;;;;;;9.85;100.00;101875.78;5023999;28;20060;-80
2022/04/27 07:40:47;;;;;;;2.47;1.70;;;;;;;10.33;100.00;101874.38;5020940;28;20057;-81
2022/04/27 07:43:22;;;;;;;2.17;1.85;;;;;;;10.03;100.00;101883.69;5027327;28;20480;-81
2022/04/27 07:45:51;;;;;;;2.95;1.80;;;;;;;10.11;100.00;101866.16;5027152;28;20053;-80
2022/04/27 07:48:19;;;;;;;3.55;1.80;;;;;;;10.05;100.00;101886.16;5029215;28;20057;-80
2022/04/27 07:50:47;;;;;;;2.25;1.60;;;;;;;10.30;100.00;101888.47;5022075;28;20061;-80
2022/04/27 07:53:20;;;;;;;2.15;1.50;;;;;;;10.31;100.00;101884.66;5018314;28;20671;-80
2022/04/27 07:55:53;;;;;;;2.67;1.85;;;;;;;10.35;100.00;101888.56;5015685;28;20052;-81
2022/04/27 07:58:28;;;;;;;2.45;1.42;;;;;;;10.47;100.00;101893.13;5024248;28;20100;-81
2022/04/27 08:01:01;;;;;;;1.40;1.30;;;;;;;10.36;100.00;101890.22;5017246;28;20049;-81
2022/04/27 08:03:34;;;;;;;3.47;1.55;;;;;;;10.22;100.00;101899.78;5018357;28;20067;-81
2022/04/27 08:06:08;;;;;;;2.38;1.33;;;;;;;10.15;100.00;101899.94;5019516;28;20057;-81
2022/04/27 08:08:41;;;;;;;2.15;1.30;;;;;;;10.43;100.00;101898.22;5019033;28;20048;-80
2022/04/27 08:11:15;;;;;;;3.58;1.50;;;;;;;10.65;100.00;101892.03;5024883;28;20053;-80
2022/04/27 08:13:50;;;;;;;2.25;1.35;;;;;;;10.84;100.00;101887.94;5021747;28;20048;-80
2022/04/27 08:16:18;;;;;;;2.58;1.35;;;;;;;10.72;100.00;101898.91;5021085;28;20065;-80
2022/04/27 08:18:51;;;;;;;2.13;1.38;;;;;;;10.96;100.00;101906.03;5017699;28;20060;-80
2022/04/27 08:21:21;;;;;;;2.10;1.33;;;;;;;11.03;100.00;101902.06;5023544;28;20057;-81
2022/04/27 08:23:50;;;;;;;1.67;1.13;;;;;;;10.80;100.00;101902.28;5019698;28;20057;-81
2022/04/27 08:26:19;;;;;;;2.78;1.40;;;;;;;10.81;100.00;101899.34;5019397;28;20057;-80
2022/04/27 08:28:53;;;;;;;2.65;1.50;;;;;;;11.00;100.00;101904.47;5018477;28;20061;-80
2022/04/27 08:31:21;;;;;;;2.70;1.50;;;;;;;10.63;100.00;101896.88;5016850;28;20068;-81
2022/04/27 08:33:55;;;;;;;2.15;1.40;;;;;;;10.62;100.00;101893.34;5021285;28;20053;-81
2022/04/27 08:36:23;;;;;;;1.30;1.20;;;;;;;10.67;100.00;101898.03;5037160;28;20060;-80
2022/04/27 08:38:56;;;;;;;2.03;1.30;;;;;;;10.56;100.00;101897.03;5021201;28;20821;-80
2022/04/27 08:41:29;;;;;;;3.53;1.58;;;;;;;10.67;100.00;101911.63;5013926;28;20061;-81
2022/04/27 08:44:07;;;;;;;2.40;1.30;;;;;;;10.94;100.00;101914.47;5018736;28;20052;-80
2022/04/27 08:46:37;;;;;;;2.40;1.30;;;;;;;10.72;100.00;101909.81;5016310;28;20053;-80
2022/04/27 08:49:09;;;;;;;1.98;1.45;;;;;;;10.82;100.00;101908.31;5020305;28;20053;-80
2022/04/27 08:51:44;;;;;;;2.55;1.35;;;;;;;10.86;100.00;101906.72;5020924;28;20064;-80
2022/04/27 08:54:18;;;;;;;3.13;1.60;;;;;;;11.03;100.00;101915.69;5027691;28;20056;-79
2022/04/27 08:56:46;;;;;;;3.33;1.40;;;;;;;11.09;100.00;101904.84;5022887;28;20053;-81
2022/04/27 08:59:21;;;;;;;3.45;1.50;;;;;;;11.16;100.00;101921.84;5020651;28;20061;-80
2022/04/27 09:01:54;;;;;;;2.10;1.38;;;;;;;11.35;100.00;101908.69;5016908;28;20063;-82
2022/04/27 09:04:27;;;;;;;2.03;1.20;;;;;;;11.42;100.00;101922.97;5016806;28;20057;-81
2022/04/27 09:07:16;;;;;;;2.22;1.38;;;;;;;11.51;100.00;101915.16;5019375;28;20060;-81
2022/04/27 09:09:49;;;;;;;2.22;1.30;;;;;;;11.29;100.00;101913.25;5015969;28;20071;-81
2022/04/27 09:12:23;;;;;;;3.50;1.50;;;;;;;11.35;100.00;101915.00;5019105;28;20068;-81
2022/04/27 09:15:03;;;;;;;3.20;1.40;;;;;;;11.56;100.00;101916.03;5015998;28;20064;-81
2022/04/27 09:23:23;;;;;;;2.70;1.40;;;;;;;11.44;100.00;101914.53;5020504;28;20505;-80
2022/04/27 09:26:00;;;;;;;2.45;1.20;;;;;;;11.63;100.00;101910.38;5012404;28;20057;-80
2022/04/27 09:28:30;;;;;;;2.55;1.25;;;;;;;11.63;100.00;101894.03;5011747;28;20501;-81
2022/04/27 09:31:05;;;;;;;3.03;1.58;;;;;;;11.41;100.00;101896.78;5013364;28;20052;-80
2022/04/27 09:33:34;;;;;;;2.90;1.50;;;;;;;11.86;100.00;101900.22;5013513;28;20064;-80
2022/04/27 09:36:25;;;;;;;3.17;1.58;;;;;;;12.14;100.00;101903.78;5023641;28;20041;-79
2022/04/27 09:38:55;;;;;;;1.80;1.35;;;;;;;12.07;100.00;101904.81;5020553;28;20501;-81
2022/04/27 09:41:40;;;;;;;1.95;1.20;;;;;;;12.12;100.00;101906.75;5021375;28;20045;-80
2022/04/27 09:44:27;;;;;;;3.40;1.40;;;;;;;12.29;100.00;101909.38;5026023;28;20064;-79
2022/04/27 09:47:03;;;;;;;3.22;1.45;;;;;;;12.33;100.00;101899.59;5015619;28;21271;-79
2022/04/27 09:49:32;;;;;;;1.75;1.30;;;;;;;12.20;95.28;101897.28;5034589;28;20829;-79
2022/04/27 09:52:07;;;;;;;2.85;1.40;;;;;;;12.35;100.00;101900.13;5030133;28;20049;-81
2022/04/27 09:54:36;;;;;;;1.98;1.30;;;;;;;12.41;100.00;101900.97;5036341;28;20064;-80
2022/04/27 09:57:13;;;;;;;3.67;1.50;;;;;;;12.56;100.00;101903.00;5017070;28;20049;-81
2022/04/27 09:59:49;;;;;;;1.77;1.25;;;;;;;12.64;100.00;101902.50;5015903;28;20758;-80
2022/04/27 10:02:24;;;;;;;2.72;1.48;;;;;;;12.51;100.00;101897.50;5034105;28;20068;-79
2022/04/27 10:05:00;;;;;;;2.65;1.27;;;;;;;12.46;100.00;101900.22;5019454;28;20057;-78
2022/04/27 10:07:35;;;;;;;5.45;1.48;;;;;;;12.49;100.00;101899.69;5012453;28;20053;-80
2022/04/27 10:10:10;;;;;;;2.80;1.20;;;;;;;12.77;100.00;101898.47;5013945;28;20053;-79
2022/04/27 10:12:43;;;;;;;3.45;1.50;;;;;;;12.60;100.00;101904.13;5014848;28;20041;-80
2022/04/27 10:15:12;;;;;;;3.25;1.48;;;;;;;12.67;100.00;101895.69;5014529;28;20059;-81
2022/04/27 10:17:46;;;;;;;3.63;1.50;;;;;;;12.97;100.00;101896.94;5022269;28;20052;-79
2022/04/27 10:20:29;;;;;;;2.40;1.30;;;;;;;12.76;94.76;101888.66;5016622;28;20383;-79
2022/04/27 10:23:22;;;;;;;5.70;1.42;;;;;;;12.86;99.71;101891.44;5020648;28;20799;-80
2022/04/27 10:26:09;;;;;;;1.63;1.13;;;;;;;12.99;92.58;101887.38;5025323;28;20053;-80
2022/04/27 10:28:48;;;;;;;3.45;1.40;;;;;;;12.99;88.09;101892.84;5024430;28;20063;-80
2022/04/27 10:32:02;;;;;;;3.55;1.40;;;;;;;13.05;85.50;101897.25;5017652;28;20053;-79
2022/04/27 10:34:37;;;;;;;2.78;1.35;;;;;;;12.63;87.73;101881.75;5022218;28;20056;-80
2022/04/27 10:37:05;;;;;;;3.00;1.20;;;;;;;12.80;87.48;101886.19;5021707;28;20060;-80
2022/04/27 10:39:34;;;;;;;2.38;1.10;;;;;;;12.61;72.91;101883.94;5021888;28;20068;-81
2022/04/27 10:42:31;;;;;;;1.63;1.10;;;;;;;12.96;83.03;101885.19;5020029;28;20049;-78
2022/04/27 10:45:06;;;;;;;4.22;1.25;;;;;;;13.35;100.00;101883.97;5022183;28;20464;-81
2022/04/27 10:47:43;;;;;;;2.55;1.45;;;;;;;12.88;85.03;101891.16;5018027;28;20061;-77
2022/04/27 10:50:33;;;;;;;5.68;1.45;;;;;;;12.46;89.26;101895.56;5023787;28;20060;-79
2022/04/27 10:53:39;;;;;;;3.90;1.50;;;;;;;12.33;91.37;101899.59;5019614;28;20049;-81
2022/04/27 10:56:22;;;;;;;4.13;1.50;;;;;;;12.51;91.53;101886.56;5013407;28;20064;-80
2022/04/27 10:58:55;;;;;;;3.85;1.48;;;;;;;12.93;90.63;101889.28;5025010;28;20049;-80
2022/04/27 11:01:32;;;;;;;2.08;1.10;;;;;;;13.02;87.72;101889.59;5024836;28;20049;-81
2022/04/27 11:04:13;;;;;;;2.78;1.38;;;;;;;12.87;85.79;101887.63;5020943;28;20063;-81
2022/04/27 11:07:26;;;;;;;2.88;1.30;;;;;;;12.94;93.66;101901.03;5017561;28;20659;-78
2022/04/27 11:10:11;;;;;;;1.63;1.20;;;;;;;12.99;86.65;101883.84;5027244;28;20053;-80
2022/04/27 11:12:41;;;;;;;3.50;1.20;;;;;;;12.92;90.98;101890.34;5021983;28;20075;-78
2022/04/27 11:15:16;;;;;;;4.65;1.58;;;;;;;12.80;93.50;101892.50;5026030;28;20053;-78
2022/04/27 11:17:56;;;;;;;4.07;1.33;;;;;;;13.08;92.83;101890.44;5023783;28;20060;-80
2022/04/27 11:20:32;;;;;;;2.92;1.50;;;;;;;13.63;96.93;101877.25;5026425;28;20053;-82
2022/04/27 11:23:09;;;;;;;4.57;1.42;;;;;;;14.06;91.67;101879.75;5023858;28;20074;-80
2022/04/27 11:25:50;;;;;;;2.67;1.40;;;;;;;14.27;78.64;101877.78;5022701;28;20045;-85
2022/04/27 11:28:25;;;;;;;1.73;1.25;;;;;;;14.54;76.51;101882.13;5030751;28;20493;-80
2022/04/27 11:30:58;;;;;;;2.22;1.20;;;;;;;14.66;74.73;101879.94;5021622;28;20037;-79
2022/04/27 11:33:34;;;;;;;2.53;1.35;;;;;;;14.85;73.27;101884.84;5024228;28;20818;-79
2022/04/27 11:36:08;;;;;;;2.00;1.20;;;;;;;15.06;71.20;101874.59;5020321;28;20052;-80
2022/04/27 11:38:38;;;;;;;1.55;1.20;;;;;;;14.89;61.10;101878.50;5032887;28;20057;-80
2022/04/27 11:41:15;;;;;;;2.08;1.27;;;;;;;14.79;70.30;101870.34;5024186;28;21518;-81
2022/04/27 11:43:49;;;;;;;3.90;1.40;;;;;;;14.96;64.90;101881.75;5025518;28;20053;-80
2022/04/27 11:46:23;;;;;;;4.13;1.40;;;;;;;15.07;67.04;101879.81;5018590;28;21275;-81
2022/04/27 11:48:56;;;;;;;3.55;1.20;;;;;;;14.60;63.07;101878.28;5026541;28;20049;-80
2022/04/27 11:51:29;;;;;;;4.30;1.23;;;;;;;14.59;68.27;101879.38;5016589;28;20044;-80
2022/04/27 11:54:04;;;;;;;2.25;1.30;;;;;;;14.04;67.61;101892.84;5017995;28;20053;-82
2022/04/27 11:56:39;;;;;;;2.40;1.40;;;;;;;14.42;66.79;101882.44;5018392;28;20059;-79
2022/04/27 11:59:12;;;;;;;3.55;1.30;;;;;;;14.91;68.37;101879.03;5025360;28;20063;-80
2022/04/27 12:01:51;;;;;;;2.97;1.30;;;;;;;14.42;72.84;101877.78;5021169;28;20517;-80
2022/04/27 12:04:25;;;;;;;3.28;1.63;;;;;;;14.48;64.58;101878.59;5024042;28;20049;-80
2022/04/27 12:06:58;;;;;;;3.30;1.40;;;;;;;14.66;62.80;101879.13;5017613;28;20052;-80
2022/04/27 12:09:28;;;;;;;4.07;1.38;;;;;;;14.91;69.19;101875.47;5023182;28;20091;-81
2022/04/27 12:12:07;;;;;;;1.73;1.20;;;;;;;14.60;61.68;101865.41;5016814;28;20053;-81
2022/04/27 12:14:40;;;;;;;2.25;1.40;;;;;;;14.55;63.60;101879.09;5018111;28;20045;-80
2022/04/27 12:17:48;;;;;;;2.90;1.25;;;;;;;14.51;59.42;101875.28;5013872;28;20063;-80
2022/04/27 12:20:29;;;;;;;2.42;1.40;;;;;;;14.62;71.55;101881.56;5036841;28;20061;-80
2022/04/27 12:23:05;;;;;;;2.95;1.20;;;;;;;14.65;72.47;101872.81;5021053;28;20055;-80